createdAt,value
2023-05-13T00:01:05.110Z,9.19
2023-05-13T00:03:32.401Z,9.35
2023-05-13T00:06:00.480Z,9.32
2023-05-13T00:08:27.007Z,9.29
2023-05-13T00:10:53.463Z,9.33
2023-05-13T00:13:19.982Z,9.34
2023-05-13T00:15:46.412Z,9.25
2023-05-13T00:18:12.869Z,9.12
2023-05-13T00:20:40.973Z,9.09
2023-05-13T00:23:07.866Z,9.02
2023-05-13T00:25:34.792Z,9.15
2023-05-13T00:28:01.215Z,9.34
2023-05-13T00:30:27.935Z,9.34
2023-05-13T00:32:54.444Z,9.22
2023-05-13T00:35:21.051Z,9.26
2023-05-13T00:37:47.490Z,9.09
2023-05-13T00:40:22.152Z,9.19
2023-05-13T00:42:49.683Z,9.19
2023-05-13T00:45:16.568Z,9.22
2023-05-13T00:47:43.736Z,9.14
2023-05-13T00:50:11.390Z,9.20
2023-05-13T00:52:39.945Z,9.13
2023-05-13T00:55:07.643Z,9.01
2023-05-13T00:57:35.134Z,9.21
2023-05-13T01:00:03.524Z,9.23
2023-05-13T01:02:52.802Z,9.16
2023-05-13T01:05:30.908Z,9.05
2023-05-13T01:08:06.708Z,9.28
2023-05-13T01:11:08.186Z,9.24
2023-05-13T01:13:43.023Z,9.18
2023-05-13T01:16:21.414Z,9.18
2023-05-13T01:18:56.623Z,9.08
2023-05-13T01:21:29.248Z,9.03
2023-05-13T01:23:56.140Z,9.14
2023-05-13T01:26:24.158Z,9.18
2023-05-13T01:28:50.995Z,8.96
2023-05-13T01:31:19.104Z,9.12
2023-05-13T01:33:46.818Z,9.07
2023-05-13T01:36:14.921Z,9.10
2023-05-13T01:38:42.741Z,8.88
2023-05-13T01:41:09.336Z,9.07
2023-05-13T01:43:36.527Z,9.07
2023-05-13T01:46:03.220Z,8.91
2023-05-13T01:48:29.726Z,8.99
2023-05-13T01:50:57.926Z,9.07
2023-05-13T01:53:24.405Z,9.15
2023-05-13T01:55:52.850Z,9.02
2023-05-13T01:58:20.726Z,9.13
2023-05-13T02:00:47.224Z,8.94
2023-05-13T02:03:13.723Z,8.87
2023-05-13T02:05:40.376Z,8.92
2023-05-13T02:08:08.244Z,8.95
2023-05-13T02:10:34.792Z,8.95
2023-05-13T02:13:01.282Z,8.68
2023-05-13T02:15:27.859Z,8.72
2023-05-13T02:17:54.417Z,8.93
2023-05-13T02:20:21.234Z,8.90
2023-05-13T02:22:47.884Z,8.89
2023-05-13T02:25:14.335Z,8.84
2023-05-13T02:27:40.828Z,8.92
2023-05-13T02:30:07.885Z,8.86
2023-05-13T02:32:34.417Z,8.84
2023-05-13T02:35:00.910Z,8.96
2023-05-13T02:37:27.552Z,9.01
2023-05-13T02:40:00.921Z,9.02
2023-05-13T02:42:27.712Z,8.92
2023-05-13T02:44:54.897Z,8.99
2023-05-13T02:47:22.626Z,8.96
2023-05-13T02:49:49.650Z,8.99
2023-05-13T02:52:16.168Z,8.97
2023-05-13T02:54:42.706Z,8.87
2023-05-13T02:57:09.313Z,8.82
2023-05-13T02:59:35.849Z,8.91
2023-05-13T03:02:02.399Z,8.76
2023-05-13T03:04:28.955Z,8.79
2023-05-13T03:06:55.704Z,8.94
2023-05-13T03:09:22.228Z,9.01
2023-05-13T03:11:49.045Z,8.88
2023-05-13T03:14:15.580Z,8.78
2023-05-13T03:16:42.137Z,8.79
2023-05-13T03:19:08.778Z,8.87
2023-05-13T03:21:35.406Z,8.91
2023-05-13T03:24:02.515Z,8.82
2023-05-13T03:26:29.732Z,8.82
2023-05-13T03:28:56.697Z,8.94
2023-05-13T03:31:23.581Z,8.95
2023-05-13T03:33:50.228Z,8.88
2023-05-13T03:36:16.709Z,8.84
2023-05-13T03:38:43.163Z,8.78
2023-05-13T03:41:09.811Z,8.88
2023-05-13T03:43:36.322Z,8.82
2023-05-13T03:46:07.465Z,8.89
2023-05-13T03:48:34.237Z,8.78
2023-05-13T03:51:02.242Z,8.70
2023-05-13T03:53:29.352Z,8.78
2023-05-13T03:55:55.839Z,8.79
2023-05-13T03:58:22.784Z,8.78
2023-05-13T04:00:49.533Z,8.81
2023-05-13T04:03:17.529Z,8.71
2023-05-13T04:05:46.141Z,8.74
2023-05-13T04:08:12.906Z,8.84
2023-05-13T04:10:39.837Z,8.80
2023-05-13T04:13:07.046Z,8.64
2023-05-13T04:15:33.680Z,8.69
2023-05-13T04:18:00.441Z,8.69
2023-05-13T04:20:29.030Z,8.68
2023-05-13T04:22:55.542Z,8.88
2023-05-13T04:25:22.094Z,8.80
2023-05-13T04:27:48.637Z,8.76
2023-05-13T04:30:23.081Z,8.67
2023-05-13T04:32:49.795Z,8.67
2023-05-13T04:35:16.641Z,8.68
2023-05-13T04:37:46.097Z,8.65
2023-05-13T04:40:15.434Z,8.55
2023-05-13T04:42:42.306Z,8.65
2023-05-13T04:45:09.507Z,8.65
2023-05-13T04:47:38.050Z,8.68
2023-05-13T04:50:05.662Z,8.65
2023-05-13T04:52:32.887Z,8.63
2023-05-13T04:54:59.565Z,8.62
2023-05-13T04:57:27.112Z,8.62
2023-05-13T04:59:53.556Z,8.64
2023-05-13T05:02:20.043Z,8.60
2023-05-13T05:04:49.269Z,8.56
2023-05-13T05:07:15.955Z,8.53
2023-05-13T05:09:42.503Z,8.58
2023-05-13T05:12:09.666Z,8.53
2023-05-13T05:14:39.536Z,8.53
2023-05-13T05:17:07.142Z,8.58
2023-05-13T05:19:34.238Z,8.53
2023-05-13T05:22:00.838Z,8.52
2023-05-13T05:24:27.364Z,8.59
2023-05-13T05:26:53.806Z,8.65
2023-05-13T05:29:20.990Z,8.59
2023-05-13T05:31:47.664Z,8.63
2023-05-13T05:34:14.624Z,8.70
2023-05-13T05:36:42.955Z,8.73
2023-05-13T05:39:10.970Z,8.56
2023-05-13T05:41:37.516Z,8.71
2023-05-13T05:44:04.261Z,8.55
2023-05-13T05:46:32.116Z,8.71
2023-05-13T05:48:59.555Z,8.73
2023-05-13T05:51:26.077Z,8.74
2023-05-13T05:53:52.631Z,8.70
2023-05-13T05:56:19.750Z,8.71
2023-05-13T05:58:46.259Z,8.67
2023-05-13T06:01:12.791Z,8.72
2023-05-13T06:03:39.368Z,8.71
2023-05-13T06:06:06.020Z,8.72
2023-05-13T06:08:33.454Z,8.85
2023-05-13T06:11:01.160Z,8.77
2023-05-13T06:13:27.879Z,8.76
2023-05-13T06:15:54.967Z,8.70
2023-05-13T06:18:21.580Z,8.91
2023-05-13T06:20:48.091Z,8.92
2023-05-13T06:23:14.966Z,8.86
2023-05-13T06:25:41.881Z,8.85
2023-05-13T06:28:10.575Z,8.79
2023-05-13T06:30:38.021Z,8.74
2023-05-13T06:33:04.917Z,8.76
2023-05-13T06:35:31.622Z,8.79
2023-05-13T06:37:59.846Z,8.92
2023-05-13T06:40:26.993Z,8.91
2023-05-13T06:42:54.555Z,8.92
2023-05-13T06:45:28.060Z,8.87
2023-05-13T06:47:54.791Z,8.79
2023-05-13T06:50:21.604Z,8.91
2023-05-13T06:52:48.338Z,8.95
2023-05-13T06:55:16.575Z,8.91
2023-05-13T06:57:46.646Z,8.87
2023-05-13T07:00:17.708Z,8.90
2023-05-13T07:02:44.161Z,8.97
2023-05-13T07:05:11.723Z,8.84
2023-05-13T07:07:38.376Z,8.97
2023-05-13T07:10:05.307Z,8.95
2023-05-13T07:12:32.629Z,8.86
2023-05-13T07:14:59.182Z,8.87
2023-05-13T07:17:25.717Z,8.86
2023-05-13T07:19:52.358Z,8.87
2023-05-13T07:22:19.010Z,9.09
2023-05-13T07:24:45.518Z,9.08
2023-05-13T07:27:11.968Z,9.00
2023-05-13T07:29:38.622Z,9.08
2023-05-13T07:32:06.210Z,9.27
2023-05-13T07:34:32.726Z,9.28
2023-05-13T07:36:59.405Z,9.10
2023-05-13T07:39:26.681Z,9.07
2023-05-13T07:41:53.654Z,9.19
2023-05-13T07:44:20.196Z,9.15
2023-05-13T07:46:48.464Z,9.13
2023-05-13T07:49:15.002Z,9.13
2023-05-13T07:51:41.954Z,8.97
2023-05-13T07:54:09.249Z,9.12
2023-05-13T07:56:35.889Z,9.07
2023-05-13T07:59:02.355Z,9.14
2023-05-13T08:01:29.067Z,9.07
2023-05-13T08:03:56.296Z,9.09
2023-05-13T08:06:23.150Z,8.91
2023-05-13T08:08:49.590Z,9.12
2023-05-13T08:11:16.060Z,9.08
2023-05-13T08:13:42.513Z,9.03
2023-05-13T08:16:09.092Z,9.15
2023-05-13T08:18:35.609Z,9.10
2023-05-13T08:21:02.084Z,9.37
2023-05-13T08:23:43.350Z,9.05
2023-05-13T08:26:11.864Z,9.26
2023-05-13T08:28:38.693Z,9.20
2023-05-13T08:31:05.252Z,9.26
2023-05-13T08:33:32.430Z,9.37
2023-05-13T08:36:00.814Z,9.34
2023-05-13T08:38:27.297Z,9.44
2023-05-13T08:40:53.936Z,9.43
2023-05-13T08:43:23.575Z,9.36
2023-05-13T08:45:53.359Z,9.53
2023-05-13T08:48:20.552Z,9.62
2023-05-13T08:50:47.326Z,9.60
2023-05-13T08:53:16.447Z,9.52
2023-05-13T08:55:42.872Z,9.73
2023-05-13T08:58:09.356Z,9.68
2023-05-13T09:00:36.144Z,9.61
2023-05-13T09:03:02.932Z,9.67
2023-05-13T09:05:29.590Z,9.75
2023-05-13T09:07:57.208Z,9.81
2023-05-13T09:10:23.927Z,10.07
2023-05-13T09:12:55.070Z,9.98
2023-05-13T09:15:24.330Z,9.99
2023-05-13T09:17:55.013Z,9.88
2023-05-13T09:20:22.608Z,9.84
2023-05-13T09:22:57.396Z,9.88
2023-05-13T09:25:25.271Z,9.93
2023-05-13T09:28:00.243Z,10.07
2023-05-13T09:30:33.000Z,9.95
2023-05-13T09:33:17.374Z,9.93
2023-05-13T09:35:44.826Z,9.95
2023-05-13T09:38:24.680Z,9.94
2023-05-13T09:40:52.173Z,9.92
2023-05-13T09:43:23.354Z,9.96
2023-05-13T09:45:57.961Z,10.00
2023-05-13T09:48:28.393Z,9.94
2023-05-13T09:50:57.724Z,9.97
2023-05-13T09:53:25.481Z,9.84
2023-05-13T09:55:53.666Z,9.73
2023-05-13T09:58:20.758Z,9.84
2023-05-13T10:00:48.114Z,9.86
2023-05-13T10:03:15.188Z,9.91
2023-05-13T10:05:42.680Z,9.80
2023-05-13T10:08:11.871Z,9.85
2023-05-13T10:10:39.028Z,9.82
2023-05-13T10:13:08.750Z,9.82
2023-05-13T10:15:35.464Z,9.82
2023-05-13T10:18:02.517Z,9.89
2023-05-13T10:20:29.607Z,9.84
2023-05-13T10:22:57.136Z,9.89
2023-05-13T10:25:24.188Z,9.78
2023-05-13T10:27:51.180Z,9.95
2023-05-13T10:30:17.861Z,10.04
2023-05-13T10:32:44.536Z,9.94
2023-05-13T10:35:16.730Z,9.99
2023-05-13T10:38:28.159Z,10.27
2023-05-13T10:41:10.170Z,10.26
2023-05-13T10:43:37.396Z,10.30
2023-05-13T10:46:11.424Z,10.41
2023-05-13T10:48:49.679Z,10.54
2023-05-13T10:51:18.416Z,10.52
2023-05-13T10:53:52.021Z,10.48
2023-05-13T10:56:24.256Z,10.43
2023-05-13T10:58:59.304Z,10.54
2023-05-13T11:01:43.035Z,10.59
2023-05-13T11:04:15.062Z,10.61
2023-05-13T11:06:44.411Z,10.54
2023-05-13T11:09:28.984Z,10.48
2023-05-13T11:12:00.286Z,10.23
2023-05-13T11:14:27.916Z,10.38
2023-05-13T11:17:00.552Z,10.34
2023-05-13T11:19:28.297Z,10.35
2023-05-13T11:21:57.364Z,10.35
2023-05-13T11:24:24.823Z,10.23
2023-05-13T11:26:57.389Z,10.22
2023-05-13T11:29:34.995Z,10.33
2023-05-13T11:32:04.318Z,10.10
2023-05-13T11:34:32.508Z,10.28
2023-05-13T11:37:05.210Z,10.38
2023-05-13T11:39:32.927Z,10.36
2023-05-13T11:42:01.837Z,10.43
2023-05-13T11:44:28.700Z,10.53
2023-05-13T11:47:05.733Z,10.60
2023-05-13T11:49:36.877Z,10.72
2023-05-13T11:52:09.315Z,10.93
2023-05-13T11:54:49.334Z,10.91
2023-05-13T11:57:28.758Z,10.93
2023-05-13T12:00:01.263Z,10.99
2023-05-13T12:02:37.609Z,10.90
2023-05-13T12:05:06.338Z,10.93
2023-05-13T12:07:34.926Z,11.00
2023-05-13T12:10:03.787Z,11.08
2023-05-13T12:12:32.770Z,10.99
2023-05-13T12:15:01.369Z,11.12
2023-05-13T12:17:28.209Z,11.18
2023-05-13T12:20:11.278Z,11.17
2023-05-13T12:22:50.782Z,11.19
2023-05-13T12:25:39.875Z,11.27
2023-05-13T12:28:25.618Z,11.26
2023-05-13T12:30:52.063Z,11.33
2023-05-13T12:33:23.677Z,11.27
2023-05-13T12:35:52.817Z,11.29
2023-05-13T12:38:21.243Z,11.22
2023-05-13T12:40:48.931Z,11.25
2023-05-13T12:43:19.666Z,11.19
2023-05-13T12:45:47.942Z,11.19
2023-05-13T12:48:16.552Z,11.11
2023-05-13T12:50:43.092Z,11.20
2023-05-13T12:53:09.563Z,11.19
2023-05-13T12:55:39.845Z,11.20
2023-05-13T12:58:13.077Z,11.34
2023-05-13T13:00:39.818Z,11.39
2023-05-13T13:03:07.483Z,11.45
2023-05-13T13:05:34.488Z,11.49
2023-05-13T13:08:05.549Z,11.49
2023-05-13T13:10:32.506Z,11.46
2023-05-13T13:12:59.003Z,11.40
2023-05-13T13:15:25.779Z,11.36
2023-05-13T13:17:55.371Z,11.45
2023-05-13T13:20:22.400Z,11.61
2023-05-13T13:22:48.913Z,11.66
2023-05-13T13:25:15.533Z,11.59
2023-05-13T13:27:42.054Z,11.66
2023-05-13T13:30:08.843Z,11.78
2023-05-13T13:32:36.001Z,11.72
2023-05-13T13:35:05.398Z,11.61
2023-05-13T13:37:31.933Z,11.93
2023-05-13T13:39:58.519Z,11.79
2023-05-13T13:42:28.680Z,11.70
2023-05-13T13:45:00.225Z,11.64
2023-05-13T13:47:26.780Z,11.65
2023-05-13T13:49:53.237Z,11.51
2023-05-13T13:52:19.769Z,11.57
2023-05-13T13:54:47.310Z,11.76
2023-05-13T13:57:14.892Z,11.80
2023-05-13T13:59:42.054Z,11.86
2023-05-13T14:02:09.412Z,11.81
2023-05-13T14:04:37.191Z,11.92
2023-05-13T14:07:04.235Z,11.86
2023-05-13T14:09:32.685Z,11.83
2023-05-13T14:11:59.260Z,11.85
2023-05-13T14:14:25.956Z,11.92
2023-05-13T14:16:55.259Z,11.86
2023-05-13T14:19:21.783Z,11.84
2023-05-13T14:21:48.313Z,11.93
2023-05-13T14:24:14.769Z,11.94
2023-05-13T14:26:41.363Z,11.88
2023-05-13T14:29:07.901Z,11.89
2023-05-13T14:31:34.488Z,11.92
2023-05-13T14:34:00.990Z,11.93
2023-05-13T14:36:27.568Z,12.00
2023-05-13T14:38:54.406Z,12.02
2023-05-13T14:41:21.633Z,11.93
2023-05-13T14:43:48.957Z,11.91
2023-05-13T14:46:15.556Z,12.00
2023-05-13T14:48:42.040Z,11.97
2023-05-13T14:51:08.682Z,12.03
2023-05-13T14:53:35.329Z,12.10
2023-05-13T14:56:01.816Z,12.08
2023-05-13T14:58:28.504Z,12.04
2023-05-13T15:00:55.136Z,12.00
2023-05-13T15:03:21.838Z,12.10
2023-05-13T15:05:48.564Z,11.75
2023-05-13T15:08:15.642Z,12.10
2023-05-13T15:10:42.171Z,11.98
2023-05-13T15:13:08.927Z,12.06
2023-05-13T15:15:35.576Z,12.03
2023-05-13T15:18:02.227Z,11.82
2023-05-13T15:20:28.811Z,12.14
2023-05-13T15:22:57.705Z,12.10
2023-05-13T15:25:24.280Z,12.10
2023-05-13T15:27:51.364Z,12.05
2023-05-13T15:30:18.018Z,11.78
2023-05-13T15:32:44.570Z,12.09
2023-05-13T15:35:11.107Z,12.16
2023-05-13T15:37:37.623Z,12.11
2023-05-13T15:40:04.757Z,12.17
2023-05-13T15:42:31.259Z,12.31
2023-05-13T15:44:57.739Z,12.25
2023-05-13T15:47:24.419Z,12.39
2023-05-13T15:49:53.415Z,12.44
2023-05-13T15:52:20.448Z,12.34
2023-05-13T15:54:46.928Z,12.36
2023-05-13T15:57:14.777Z,12.25
2023-05-13T15:59:41.239Z,12.51
2023-05-13T16:02:08.360Z,12.42
2023-05-13T16:04:35.080Z,12.54
2023-05-13T16:07:01.802Z,12.40
2023-05-13T16:09:28.274Z,12.46
2023-05-13T16:11:55.363Z,12.51
2023-05-13T16:14:21.840Z,12.45
2023-05-13T16:16:48.484Z,12.41
2023-05-13T16:19:15.106Z,12.46
2023-05-13T16:21:42.391Z,12.37
2023-05-13T16:24:08.981Z,12.39
2023-05-13T16:26:35.501Z,12.22
2023-05-13T16:29:02.082Z,12.49
2023-05-13T16:31:29.684Z,12.46
2023-05-13T16:33:56.509Z,12.43
2023-05-13T16:36:23.286Z,12.58
2023-05-13T16:38:49.993Z,12.59
2023-05-13T16:41:16.627Z,12.63
2023-05-13T16:43:43.182Z,12.55
2023-05-13T16:46:09.725Z,12.81
2023-05-13T16:48:36.743Z,12.94
2023-05-13T16:51:03.750Z,12.80
2023-05-13T16:53:30.891Z,12.61
2023-05-13T16:55:57.495Z,12.85
2023-05-13T16:58:24.067Z,12.83
2023-05-13T17:00:50.914Z,12.64
2023-05-13T17:03:17.941Z,12.72
2023-05-13T17:05:44.726Z,12.67
2023-05-13T17:08:11.254Z,12.33
2023-05-13T17:10:38.135Z,12.63
2023-05-13T17:13:05.700Z,12.60
2023-05-13T17:15:32.172Z,12.58
2023-05-13T17:17:58.651Z,12.46
2023-05-13T17:20:25.489Z,12.58
2023-05-13T17:22:52.059Z,12.51
2023-05-13T17:25:18.589Z,12.48
2023-05-13T17:27:45.030Z,12.47
2023-05-13T17:30:11.993Z,12.42
2023-05-13T17:32:38.627Z,12.53
2023-05-13T17:35:05.677Z,12.35
2023-05-13T17:37:32.359Z,12.45
2023-05-13T17:40:00.853Z,12.12
2023-05-13T17:42:28.932Z,12.33
2023-05-13T17:44:55.514Z,12.36
2023-05-13T17:47:22.124Z,12.37
2023-05-13T17:49:48.554Z,12.37
2023-05-13T17:52:15.040Z,12.31
2023-05-13T17:54:41.534Z,12.30
2023-05-13T17:57:09.936Z,12.22
2023-05-13T18:00:04.737Z,12.38
2023-05-13T18:02:31.543Z,12.25
2023-05-13T18:05:02.536Z,12.28
2023-05-13T18:07:29.041Z,12.19
2023-05-13T18:09:56.018Z,12.06
2023-05-13T18:12:22.489Z,12.14
2023-05-13T18:14:48.996Z,12.12
2023-05-13T18:17:15.553Z,12.16
2023-05-13T18:19:42.008Z,12.21
2023-05-13T18:22:09.516Z,12.17
2023-05-13T18:24:36.050Z,12.06
2023-05-13T18:31:38.115Z,12.06
2023-05-13T18:34:04.661Z,11.99
2023-05-13T18:36:32.666Z,12.01
2023-05-13T18:38:59.267Z,11.91
2023-05-13T18:41:25.824Z,11.99
2023-05-13T18:43:52.280Z,11.90
2023-05-13T18:46:19.647Z,11.93
2023-05-13T18:48:46.387Z,11.89
2023-05-13T18:51:12.920Z,11.97
2023-05-13T18:53:39.402Z,11.80
2023-05-13T18:56:05.929Z,11.85
2023-05-13T18:58:32.470Z,11.87
2023-05-13T19:00:58.956Z,11.71
2023-05-13T19:03:26.844Z,11.79
2023-05-13T19:05:53.533Z,11.70
2023-05-13T19:08:20.055Z,11.74
2023-05-13T19:10:46.499Z,11.89
2023-05-13T19:13:14.568Z,11.77
2023-05-13T19:15:41.024Z,11.73
2023-05-13T19:18:07.525Z,11.81
2023-05-13T19:20:34.033Z,11.89
2023-05-13T19:23:00.705Z,11.81
2023-05-13T19:25:27.192Z,11.88
2023-05-13T19:27:53.717Z,11.81
2023-05-13T19:30:20.685Z,11.70
2023-05-13T19:32:47.319Z,11.88
2023-05-13T19:35:14.089Z,11.82
2023-05-13T19:37:40.687Z,11.83
2023-05-13T19:40:07.682Z,11.78
2023-05-13T19:42:34.157Z,11.80
2023-05-13T19:45:00.613Z,11.84
2023-05-13T19:47:27.209Z,11.81
2023-05-13T19:49:53.847Z,11.60
2023-05-13T19:52:20.786Z,11.79
2023-05-13T19:54:47.279Z,11.70
2023-05-13T19:57:13.801Z,11.78
2023-05-13T19:59:41.676Z,11.77
2023-05-13T20:02:08.774Z,11.76
2023-05-13T20:04:35.420Z,11.73
2023-05-13T20:07:04.504Z,11.59
2023-05-13T20:09:31.208Z,11.87
2023-05-13T20:11:58.051Z,11.92
2023-05-13T20:14:27.827Z,11.91
2023-05-13T20:16:54.599Z,11.76
2023-05-13T20:19:21.210Z,11.90
2023-05-13T20:21:47.812Z,11.67
2023-05-13T20:24:14.252Z,11.40
2023-05-13T20:26:41.815Z,11.32
2023-05-13T20:29:08.439Z,11.45
2023-05-13T20:31:42.267Z,11.37
2023-05-13T20:34:11.754Z,11.37
2023-05-13T20:36:38.724Z,11.28
2023-05-13T20:39:05.335Z,11.19
2023-05-13T20:41:32.739Z,11.25
2023-05-13T20:44:03.191Z,11.20
2023-05-13T20:46:29.724Z,11.05
2023-05-13T20:48:56.272Z,11.19
2023-05-13T20:51:23.002Z,11.03
2023-05-13T20:53:49.523Z,11.06
2023-05-13T20:56:16.066Z,11.20
2023-05-13T20:58:42.658Z,11.06
2023-05-13T21:01:09.224Z,11.09
2023-05-13T21:03:35.832Z,11.06
2023-05-13T21:06:02.479Z,10.99
2023-05-13T21:08:29.000Z,10.90
2023-05-13T21:10:56.918Z,10.97
2023-05-13T21:13:23.457Z,10.79
2023-05-13T21:15:53.131Z,10.90
2023-05-13T21:18:19.607Z,10.81
2023-05-13T21:20:46.581Z,10.61
2023-05-13T21:23:13.081Z,10.65
2023-05-13T21:25:59.893Z,10.78
2023-05-13T21:28:26.392Z,10.62
2023-05-13T21:30:52.863Z,10.77
2023-05-13T21:33:19.320Z,10.77
2023-05-13T21:35:45.773Z,10.63
2023-05-13T21:38:12.773Z,10.79
2023-05-13T21:40:39.824Z,10.77
2023-05-13T21:43:06.264Z,10.76
2023-05-13T21:45:32.696Z,10.76
2023-05-13T21:47:59.190Z,10.86
2023-05-13T21:50:25.809Z,10.83
2023-05-13T21:52:52.307Z,10.90
2023-05-13T21:55:18.788Z,10.86
2023-05-13T21:57:45.256Z,10.85
2023-05-13T22:00:15.149Z,10.80
2023-05-13T22:02:50.795Z,10.84
2023-05-13T22:05:17.553Z,10.77
2023-05-13T22:07:44.039Z,10.80
2023-05-13T22:10:11.516Z,10.78
2023-05-13T22:12:37.984Z,10.84
2023-05-13T22:15:04.879Z,10.68
2023-05-13T22:17:31.488Z,10.65
2023-05-13T22:19:58.045Z,10.69
2023-05-13T22:22:24.588Z,10.63
2023-05-13T22:24:51.617Z,10.72
2023-05-13T22:27:18.101Z,10.67
2023-05-13T22:29:44.606Z,10.80
2023-05-13T22:32:11.212Z,10.65
2023-05-13T22:34:37.740Z,10.61
2023-05-13T22:37:04.394Z,10.78
2023-05-13T22:39:31.089Z,10.66
2023-05-13T22:41:57.591Z,10.71
2023-05-13T22:44:24.122Z,10.73
2023-05-13T22:46:52.559Z,10.80
2023-05-13T22:49:19.276Z,10.71
2023-05-13T22:51:47.734Z,10.72
2023-05-13T22:54:14.231Z,10.42
2023-05-13T22:56:40.701Z,10.70
2023-05-13T22:59:07.220Z,10.74
2023-05-13T23:01:33.863Z,10.57
2023-05-13T23:04:00.565Z,10.52
2023-05-13T23:06:27.111Z,10.70
2023-05-13T23:08:53.562Z,10.54
2023-05-13T23:11:20.099Z,10.68
2023-05-13T23:13:46.576Z,10.68
2023-05-13T23:16:13.173Z,10.49
2023-05-13T23:18:39.961Z,10.67
2023-05-13T23:21:08.966Z,10.48
2023-05-13T23:23:35.806Z,10.67
2023-05-13T23:26:04.181Z,10.70
2023-05-13T23:28:31.699Z,10.70
2023-05-13T23:30:58.231Z,10.59
2023-05-13T23:33:24.656Z,10.68
2023-05-13T23:35:56.195Z,10.62
2023-05-13T23:38:23.270Z,10.62
2023-05-13T23:40:49.969Z,10.50
2023-05-13T23:43:16.519Z,10.47
2023-05-13T23:45:43.129Z,10.56
2023-05-13T23:48:09.675Z,10.27
2023-05-13T23:50:36.162Z,10.47
2023-05-13T23:53:02.728Z,10.45
2023-05-13T23:55:29.187Z,10.48
2023-05-13T23:57:55.878Z,10.45
